METAR Data
IDs: Format: Raw Decoded Include TAF

Data at: 1913 UTC 26 Sep 2021

KMLB 261853Z 05013KT 10SM FEW055 29/20 A3005 RMK AO2 SLP176 T02940200

KMLB 261735Z 2618/2718 05012KT P6SM SCT035
  FM270100 07006KT P6SM FEW035
  FM271400 05009KT P6SM FEW035


KTIX 261847Z 03010KT 7SM SCT040 31/19 A3008

KTIX 261735Z 2618/2718 05012KT P6SM SCT035
  FM270000 06005KT P6SM FEW035
  FM271400 05008KT P6SM FEW035


KCOF 261856Z AUTO 04013KT 10SM CLR 29/21 A3005 RMK AO2 SLP180 T02940213 $

TAF KCOF 261800Z 2618/2724 04010G15KT 9999 FEW030 QNH3004INS
  BECMG 2703/2704 06006KT 9999 FEW040 QNH3005INS
  BECMG 2712/2713 05010G15KT 9999 FEW030 QNH3002INS TX30/2618Z TN25/2710Z LAST NO AMDS AFT 2621 NEXT 2710


KVRB 261853Z 05010KT 10SM SCT036 29/21 A3007 RMK AO2 SLP180 T02940211 $

KVRB 261735Z 2618/2718 05012KT P6SM FEW035 SCT040
  FM270000 VRB05KT P6SM FEW035
  FM271400 05010KT P6SM FEW035